sensor_id;sensor_type;location;lat;lon;timestamp;pressure;altitude;pressure_sealevel;temperature;humidity
51245;BME280;37840;47.562;18.738;2023-11-21T00:00:32;99233.53;;;9.66;73.85
51245;BME280;37840;47.562;18.738;2023-11-21T00:02:58;99236.91;;;9.68;74.01
51245;BME280;37840;47.562;18.738;2023-11-21T00:05:24;99234.38;;;9.67;73.78
51245;BME280;37840;47.562;18.738;2023-11-21T00:07:49;99235.44;;;9.64;73.75
51245;BME280;37840;47.562;18.738;2023-11-21T00:10:17;99237.38;;;9.62;74.04
51245;BME280;37840;47.562;18.738;2023-11-21T00:12:43;99237.38;;;9.62;74.13
51245;BME280;37840;47.562;18.738;2023-11-21T00:15:09;99235.97;;;9.69;74.11
51245;BME280;37840;47.562;18.738;2023-11-21T00:17:39;99237.75;;;9.69;73.91
51245;BME280;37840;47.562;18.738;2023-11-21T00:20:06;99234.50;;;9.65;74.00
51245;BME280;37840;47.562;18.738;2023-11-21T00:22:34;99230.25;;;9.63;74.12
51245;BME280;37840;47.562;18.738;2023-11-21T00:25:00;99227.00;;;9.59;74.21
51245;BME280;37840;47.562;18.738;2023-11-21T00:27:26;99235.62;;;9.50;74.47
51245;BME280;37840;47.562;18.738;2023-11-21T00:29:52;99232.78;;;9.53;74.32
51245;BME280;37840;47.562;18.738;2023-11-21T00:32:18;99251.25;;;9.54;74.30
51245;BME280;37840;47.562;18.738;2023-11-21T00:34:43;99247.78;;;9.65;73.94
51245;BME280;37840;47.562;18.738;2023-11-21T00:37:09;99245.69;;;9.57;73.84
51245;BME280;37840;47.562;18.738;2023-11-21T00:39:35;99250.72;;;9.49;74.14
51245;BME280;37840;47.562;18.738;2023-11-21T00:42:01;99255.09;;;9.50;74.04
51245;BME280;37840;47.562;18.738;2023-11-21T00:44:27;99257.47;;;9.42;74.23
51245;BME280;37840;47.562;18.738;2023-11-21T00:46:53;99258.66;;;9.38;74.37
51245;BME280;37840;47.562;18.738;2023-11-21T00:49:20;99261.00;;;9.30;74.79
51245;BME280;37840;47.562;18.738;2023-11-21T00:51:46;99263.03;;;9.26;75.11
51245;BME280;37840;47.562;18.738;2023-11-21T00:54:12;99253.50;;;9.24;75.33
51245;BME280;37840;47.562;18.738;2023-11-21T00:56:38;99260.81;;;9.20;74.72
51245;BME280;37840;47.562;18.738;2023-11-21T00:59:05;99257.19;;;9.10;70.50
51245;BME280;37840;47.562;18.738;2023-11-21T01:01:32;99257.47;;;8.81;70.85
51245;BME280;37840;47.562;18.738;2023-11-21T01:03:58;99260.97;;;8.69;71.99
51245;BME280;37840;47.562;18.738;2023-11-21T01:06:24;99259.66;;;8.50;72.97
51245;BME280;37840;47.562;18.738;2023-11-21T01:08:50;99261.87;;;8.44;73.03
51245;BME280;37840;47.562;18.738;2023-11-21T01:11:16;99254.75;;;8.31;73.55
51245;BME280;37840;47.562;18.738;2023-11-21T01:13:43;99258.47;;;8.16;74.57
51245;BME280;37840;47.562;18.738;2023-11-21T01:16:10;99252.19;;;8.17;75.43
51245;BME280;37840;47.562;18.738;2023-11-21T01:18:37;99252.72;;;8.22;76.39
51245;BME280;37840;47.562;18.738;2023-11-21T01:21:03;99253.28;;;8.14;76.65
51245;BME280;37840;47.562;18.738;2023-11-21T01:23:29;99250.62;;;8.02;75.90
51245;BME280;37840;47.562;18.738;2023-11-21T01:25:56;99250.28;;;7.93;74.57
51245;BME280;37840;47.562;18.738;2023-11-21T01:28:22;99244.66;;;7.85;75.14
51245;BME280;37840;47.562;18.738;2023-11-21T01:30:49;99244.13;;;7.80;75.98
51245;BME280;37840;47.562;18.738;2023-11-21T01:33:15;99230.91;;;7.80;76.86
51245;BME280;37840;47.562;18.738;2023-11-21T01:35:42;99229.41;;;7.76;77.30
51245;BME280;37840;47.562;18.738;2023-11-21T01:38:08;99231.84;;;7.79;77.82
51245;BME280;37840;47.562;18.738;2023-11-21T01:40:34;99232.91;;;7.76;77.56
51245;BME280;37840;47.562;18.738;2023-11-21T01:43:00;99221.88;;;7.70;78.08
51245;BME280;37840;47.562;18.738;2023-11-21T01:45:29;99225.59;;;7.67;78.60
51245;BME280;37840;47.562;18.738;2023-11-21T01:47:57;99217.13;;;7.75;78.61
51245;BME280;37840;47.562;18.738;2023-11-21T01:50:23;99221.16;;;7.81;78.69
51245;BME280;37840;47.562;18.738;2023-11-21T01:52:50;99221.91;;;7.83;78.28
51245;BME280;37840;47.562;18.738;2023-11-21T01:55:17;99215.22;;;7.77;78.68
51245;BME280;37840;47.562;18.738;2023-11-21T01:57:46;99214.16;;;7.80;78.68
51245;BME280;37840;47.562;18.738;2023-11-21T02:00:13;99216.63;;;7.43;74.10
51245;BME280;37840;47.562;18.738;2023-11-21T02:02:43;99212.72;;;7.35;73.51
51245;BME280;37840;47.562;18.738;2023-11-21T02:05:10;99209.81;;;7.26;74.01
51245;BME280;37840;47.562;18.738;2023-11-21T02:07:39;99206.81;;;7.18;74.71
51245;BME280;37840;47.562;18.738;2023-11-21T02:10:07;99211.13;;;7.06;75.67
51245;BME280;37840;47.562;18.738;2023-11-21T02:12:33;99209.66;;;7.02;76.18
51245;BME280;37840;47.562;18.738;2023-11-21T02:15:04;99208.44;;;6.93;76.89
51245;BME280;37840;47.562;18.738;2023-11-21T02:17:35;99204.84;;;6.94;77.40
51245;BME280;37840;47.562;18.738;2023-11-21T02:20:02;99211.09;;;6.93;77.58
51245;BME280;37840;47.562;18.738;2023-11-21T02:22:30;99209.78;;;6.86;78.05
51245;BME280;37840;47.562;18.738;2023-11-21T02:24:58;99206.38;;;6.84;78.20
51245;BME280;37840;47.562;18.738;2023-11-21T02:27:24;99205.91;;;6.77;78.32
51245;BME280;37840;47.562;18.738;2023-11-21T02:29:50;99199.44;;;6.68;79.05
51245;BME280;37840;47.562;18.738;2023-11-21T02:32:16;99198.38;;;6.71;79.35
51245;BME280;37840;47.562;18.738;2023-11-21T02:34:45;99195.25;;;6.79;79.73
51245;BME280;37840;47.562;18.738;2023-11-21T02:37:11;99192.22;;;6.85;80.14
51245;BME280;37840;47.562;18.738;2023-11-21T02:39:36;99187.09;;;6.96;80.11
51245;BME280;37840;47.562;18.738;2023-11-21T02:42:03;99176.91;;;6.90;80.37
51245;BME280;37840;47.562;18.738;2023-11-21T02:44:29;99176.91;;;6.90;80.62
51245;BME280;37840;47.562;18.738;2023-11-21T02:46:55;99175.22;;;6.89;80.80
51245;BME280;37840;47.562;18.738;2023-11-21T02:49:23;99178.06;;;6.86;81.37
51245;BME280;37840;47.562;18.738;2023-11-21T02:51:49;99185.94;;;7.00;81.03
51245;BME280;37840;47.562;18.738;2023-11-21T02:54:15;99171.75;;;7.01;81.11
51245;BME280;37840;47.562;18.738;2023-11-21T02:56:42;99180.34;;;7.05;80.79
51245;BME280;37840;47.562;18.738;2023-11-21T02:59:08;99178.00;;;7.00;81.19
51245;BME280;37840;47.562;18.738;2023-11-21T03:01:34;99178.09;;;6.99;81.26
51245;BME280;37840;47.562;18.738;2023-11-21T03:04:00;99179.25;;;6.94;81.43
51245;BME280;37840;47.562;18.738;2023-11-21T03:06:27;99166.03;;;6.94;79.84
51245;BME280;37840;47.562;18.738;2023-11-21T03:08:53;99163.91;;;6.87;80.26
51245;BME280;37840;47.562;18.738;2023-11-21T03:11:19;99155.41;;;6.82;80.28
51245;BME280;37840;47.562;18.738;2023-11-21T03:13:45;99153.72;;;6.81;80.07
51245;BME280;37840;47.562;18.738;2023-11-21T03:16:11;99152.97;;;6.79;80.26
51245;BME280;37840;47.562;18.738;2023-11-21T03:18:38;99140.06;;;6.74;80.45
51245;BME280;37840;47.562;18.738;2023-11-21T03:21:05;99143.03;;;6.69;80.86
51245;BME280;37840;47.562;18.738;2023-11-21T03:23:31;99144.59;;;6.72;81.63
51245;BME280;37840;47.562;18.738;2023-11-21T03:25:57;99139.19;;;6.73;81.86
51245;BME280;37840;47.562;18.738;2023-11-21T03:28:25;99140.06;;;6.74;82.07
51245;BME280;37840;47.562;18.738;2023-11-21T03:30:52;99128.00;;;6.70;82.54
51245;BME280;37840;47.562;18.738;2023-11-21T03:33:18;99133.16;;;6.71;82.74
51245;BME280;37840;47.562;18.738;2023-11-21T03:35:44;99136.88;;;6.69;83.03
51245;BME280;37840;47.562;18.738;2023-11-21T03:38:10;99137.31;;;6.76;83.03
51245;BME280;37840;47.562;18.738;2023-11-21T03:40:36;99124.56;;;6.82;82.73
51245;BME280;37840;47.562;18.738;2023-11-21T03:43:02;99123.91;;;6.79;82.95
51245;BME280;37840;47.562;18.738;2023-11-21T03:45:28;99122.03;;;6.81;83.03
51245;BME280;37840;47.562;18.738;2023-11-21T03:47:54;99122.84;;;6.81;82.70
51245;BME280;37840;47.562;18.738;2023-11-21T03:50:21;99122.19;;;6.78;83.06
51245;BME280;37840;47.562;18.738;2023-11-21T03:52:47;99132.16;;;6.74;82.45
51245;BME280;37840;47.562;18.738;2023-11-21T03:55:13;99135.81;;;6.71;82.17
51245;BME280;37840;47.562;18.738;2023-11-21T03:57:40;99152.09;;;6.65;82.68
51245;BME280;37840;47.562;18.738;2023-11-21T04:00:07;99151.34;;;6.63;83.24
51245;BME280;37840;47.562;18.738;2023-11-21T04:02:34;99156.63;;;6.63;83.54
51245;BME280;37840;47.562;18.738;2023-11-21T04:05:01;99148.97;;;6.59;84.23
51245;BME280;37840;47.562;18.738;2023-11-21T04:07:26;99154.00;;;6.49;85.38
51245;BME280;37840;47.562;18.738;2023-11-21T04:09:52;99145.56;;;6.57;84.91
51245;BME280;37840;47.562;18.738;2023-11-21T04:12:19;99150.22;;;6.53;85.40
51245;BME280;37840;47.562;18.738;2023-11-21T04:14:45;99162.47;;;6.54;85.53
51245;BME280;37840;47.562;18.738;2023-11-21T04:17:11;99168.88;;;6.64;85.50
51245;BME280;37840;47.562;18.738;2023-11-21T04:19:37;99172.25;;;6.66;85.22
51245;BME280;37840;47.562;18.738;2023-11-21T04:22:03;99172.09;;;6.69;85.57
51245;BME280;37840;47.562;18.738;2023-11-21T04:24:30;99180.41;;;6.63;86.56
51245;BME280;37840;47.562;18.738;2023-11-21T04:26:55;99176.63;;;6.67;86.38
51245;BME280;37840;47.562;18.738;2023-11-21T04:29:21;99181.91;;;6.67;86.63
51245;BME280;37840;47.562;18.738;2023-11-21T04:31:48;99190.44;;;6.85;84.94
51245;BME280;37840;47.562;18.738;2023-11-21T04:34:15;99189.78;;;6.82;84.83
51245;BME280;37840;47.562;18.738;2023-11-21T04:36:40;99200.94;;;6.72;85.18
51245;BME280;37840;47.562;18.738;2023-11-21T04:39:06;99199.78;;;6.77;85.09
51245;BME280;37840;47.562;18.738;2023-11-21T04:41:32;99197.53;;;6.70;85.70
51245;BME280;37840;47.562;18.738;2023-11-21T04:43:58;99192.91;;;6.74;85.77
51245;BME280;37840;47.562;18.738;2023-11-21T04:46:26;99197.69;;;6.82;85.58
51245;BME280;37840;47.562;18.738;2023-11-21T04:48:52;99210.47;;;6.75;85.98
51245;BME280;37840;47.562;18.738;2023-11-21T04:51:18;99198.56;;;6.82;86.03
51245;BME280;37840;47.562;18.738;2023-11-21T04:53:44;99202.22;;;6.80;85.67
51245;BME280;37840;47.562;18.738;2023-11-21T04:56:10;99199.03;;;6.74;85.22
51245;BME280;37840;47.562;18.738;2023-11-21T04:58:35;99194.06;;;6.70;83.50
51245;BME280;37840;47.562;18.738;2023-11-21T05:01:02;99196.03;;;6.66;83.33
51245;BME280;37840;47.562;18.738;2023-11-21T05:03:28;99193.59;;;6.63;82.80
51245;BME280;37840;47.562;18.738;2023-11-21T05:05:55;99185.19;;;6.57;82.86
51245;BME280;37840;47.562;18.738;2023-11-21T05:08:21;99178.31;;;6.54;83.09
51245;BME280;37840;47.562;18.738;2023-11-21T05:10:48;99188.44;;;6.47;83.63
51245;BME280;37840;47.562;18.738;2023-11-21T05:13:16;99199.09;;;6.46;83.76
51245;BME280;37840;47.562;18.738;2023-11-21T05:15:43;99199.09;;;6.46;83.91
51245;BME280;37840;47.562;18.738;2023-11-21T05:18:09;99213.63;;;6.39;84.33
51245;BME280;37840;47.562;18.738;2023-11-21T05:20:35;99211.84;;;6.39;84.46
51245;BME280;37840;47.562;18.738;2023-11-21T05:23:01;99213.63;;;6.39;84.70
51245;BME280;37840;47.562;18.738;2023-11-21T05:25:27;99203.72;;;6.42;84.86
51245;BME280;37840;47.562;18.738;2023-11-21T05:27:53;99202.03;;;6.41;85.14
51245;BME280;37840;47.562;18.738;2023-11-21T05:30:21;99204.38;;;6.46;85.04
51245;BME280;37840;47.562;18.738;2023-11-21T05:32:47;99206.84;;;6.35;85.38
51245;BME280;37840;47.562;18.738;2023-11-21T05:35:13;99207.22;;;6.28;86.00
51245;BME280;37840;47.562;18.738;2023-11-21T05:37:42;99209.78;;;6.30;86.27
51245;BME280;37840;47.562;18.738;2023-11-21T05:40:08;99209.47;;;6.35;85.93
51245;BME280;37840;47.562;18.738;2023-11-21T05:42:35;99212.69;;;6.40;86.01
51245;BME280;37840;47.562;18.738;2023-11-21T05:45:02;99222.78;;;6.33;86.36
51245;BME280;37840;47.562;18.738;2023-11-21T05:47:42;99215.34;;;6.40;86.29
51245;BME280;37840;47.562;18.738;2023-11-21T05:50:09;99234.75;;;6.39;86.29
51245;BME280;37840;47.562;18.738;2023-11-21T05:52:36;99243.91;;;6.33;86.51
51245;BME280;37840;47.562;18.738;2023-11-21T05:55:03;99220.22;;;6.46;86.47
51245;BME280;37840;47.562;18.738;2023-11-21T05:57:34;99232.03;;;6.40;86.92
51245;BME280;37840;47.562;18.738;2023-11-21T06:00:04;99239.66;;;6.30;87.58
51245;BME280;37840;47.562;18.738;2023-11-21T06:02:40;99229.38;;;6.26;88.12
51245;BME280;37840;47.562;18.738;2023-11-21T06:05:07;99239.75;;;6.29;88.03
51245;BME280;37840;47.562;18.738;2023-11-21T06:07:33;99244.00;;;6.31;87.77
51245;BME280;37840;47.562;18.738;2023-11-21T06:09:59;99254.97;;;6.40;87.97
51245;BME280;37840;47.562;18.738;2023-11-21T06:12:25;99265.22;;;6.44;88.42
51245;BME280;37840;47.562;18.738;2023-11-21T06:14:51;99269.75;;;6.42;88.86
51245;BME280;37840;47.562;18.738;2023-11-21T06:17:17;99276.19;;;6.52;89.12
51245;BME280;37840;47.562;18.738;2023-11-21T06:19:44;99281.53;;;6.51;89.44
51245;BME280;37840;47.562;18.738;2023-11-21T06:22:11;99290.41;;;6.64;89.65
51245;BME280;37840;47.562;18.738;2023-11-21T06:24:37;99294.84;;;6.64;89.31
51245;BME280;37840;47.562;18.738;2023-11-21T06:27:04;99308.34;;;6.59;88.46
51245;BME280;37840;47.562;18.738;2023-11-21T06:29:30;99312.88;;;6.57;87.10
51245;BME280;37840;47.562;18.738;2023-11-21T06:31:57;99311.16;;;6.56;86.63
51245;BME280;37840;47.562;18.738;2023-11-21T06:34:24;99313.34;;;6.49;87.05
51245;BME280;37840;47.562;18.738;2023-11-21T06:36:50;99306.81;;;6.41;87.80
51245;BME280;37840;47.562;18.738;2023-11-21T06:39:17;99316.25;;;6.45;87.80
51245;BME280;37840;47.562;18.738;2023-11-21T06:41:43;99311.25;;;6.40;88.31
51245;BME280;37840;47.562;18.738;2023-11-21T06:44:09;99309.66;;;6.38;88.81
51245;BME280;37840;47.562;18.738;2023-11-21T06:46:34;99328.78;;;6.41;88.74
51245;BME280;37840;47.562;18.738;2023-11-21T06:49:00;99332.28;;;6.42;88.56
51245;BME280;37840;47.562;18.738;2023-11-21T06:51:26;99323.06;;;6.49;87.61
51245;BME280;37840;47.562;18.738;2023-11-21T06:53:52;99324.66;;;6.51;87.46
51245;BME280;37840;47.562;18.738;2023-11-21T06:56:18;99327.00;;;6.42;87.58
51245;BME280;37840;47.562;18.738;2023-11-21T06:58:45;99315.69;;;6.40;87.73
51245;BME280;37840;47.562;18.738;2023-11-21T07:01:13;99316.06;;;6.33;88.44
51245;BME280;37840;47.562;18.738;2023-11-21T07:03:39;99318.78;;;6.32;88.79
51245;BME280;37840;47.562;18.738;2023-11-21T07:06:05;99325.69;;;6.35;88.93
51245;BME280;37840;47.562;18.738;2023-11-21T07:08:31;99329.06;;;6.37;89.16
51245;BME280;37840;47.562;18.738;2023-11-21T07:10:57;99325.69;;;6.35;89.41
51245;BME280;37840;47.562;18.738;2023-11-21T07:13:23;99325.50;;;6.38;89.66
51245;BME280;37840;47.562;18.738;2023-11-21T07:15:49;99327.09;;;6.40;90.03
51245;BME280;37840;47.562;18.738;2023-11-21T07:18:15;99324.09;;;6.46;90.24
51245;BME280;37840;47.562;18.738;2023-11-21T07:20:41;99332.50;;;6.53;90.36
51245;BME280;37840;47.562;18.738;2023-11-21T07:23:07;99335.59;;;6.60;90.19
51245;BME280;37840;47.562;18.738;2023-11-21T07:25:33;99338.63;;;6.53;90.40
51245;BME280;37840;47.562;18.738;2023-11-21T07:27:59;99337.97;;;6.64;90.23
51245;BME280;37840;47.562;18.738;2023-11-21T07:30:26;99338.91;;;6.63;90.19
51245;BME280;37840;47.562;18.738;2023-11-21T07:32:53;99339.84;;;6.77;90.38
51245;BME280;37840;47.562;18.738;2023-11-21T07:35:19;99340.53;;;6.80;90.00
51245;BME280;37840;47.562;18.738;2023-11-21T07:37:45;99335.50;;;6.76;90.41
51245;BME280;37840;47.562;18.738;2023-11-21T07:40:12;99341.06;;;6.71;90.86
51245;BME280;37840;47.562;18.738;2023-11-21T07:42:39;99336.91;;;6.67;91.47
51245;BME280;37840;47.562;18.738;2023-11-21T07:45:05;99338.44;;;6.71;91.38
51245;BME280;37840;47.562;18.738;2023-11-21T07:47:32;99342.97;;;6.69;91.57
51245;BME280;37840;47.562;18.738;2023-11-21T07:50:01;99338.72;;;6.66;91.95
51245;BME280;37840;47.562;18.738;2023-11-21T07:52:28;99336.16;;;6.65;92.25
51245;BME280;37840;47.562;18.738;2023-11-21T07:54:54;99333.50;;;6.65;92.54
51245;BME280;37840;47.562;18.738;2023-11-21T07:57:20;99325.41;;;6.68;92.75
51245;BME280;37840;47.562;18.738;2023-11-21T07:59:46;99319.84;;;6.72;92.76
51245;BME280;37840;47.562;18.738;2023-11-21T08:02:12;99318.72;;;6.77;92.84
51245;BME280;37840;47.562;18.738;2023-11-21T08:04:38;99315.59;;;6.84;92.57
51245;BME280;37840;47.562;18.738;2023-11-21T08:07:04;99315.47;;;6.86;92.70
51245;BME280;37840;47.562;18.738;2023-11-21T08:09:30;99312.47;;;6.92;92.93
51245;BME280;37840;47.562;18.738;2023-11-21T08:11:56;99312.81;;;7.00;93.40
51245;BME280;37840;47.562;18.738;2023-11-21T08:14:22;99319.16;;;7.12;93.71
51245;BME280;37840;47.562;18.738;2023-11-21T08:16:51;99321.28;;;7.20;93.65
51245;BME280;37840;47.562;18.738;2023-11-21T08:19:17;99311.66;;;7.19;93.83
51245;BME280;37840;47.562;18.738;2023-11-21T08:21:44;99306.91;;;7.24;93.34
51245;BME280;37840;47.562;18.738;2023-11-21T08:24:11;99312.31;;;7.22;93.16
51245;BME280;37840;47.562;18.738;2023-11-21T08:26:37;99316.97;;;7.19;93.34
51245;BME280;37840;47.562;18.738;2023-11-21T08:29:03;99312.22;;;7.24;92.82
51245;BME280;37840;47.562;18.738;2023-11-21T08:31:29;99313.41;;;7.32;92.25
51245;BME280;37840;47.562;18.738;2023-11-21T08:33:55;99317.94;;;7.30;92.27
51245;BME280;37840;47.562;18.738;2023-11-21T08:36:22;99317.84;;;7.32;91.77
51245;BME280;37840;47.562;18.738;2023-11-21T08:38:50;99311.06;;;7.28;92.26
51245;BME280;37840;47.562;18.738;2023-11-21T08:41:17;99317.56;;;7.37;92.15
51245;BME280;37840;47.562;18.738;2023-11-21T08:43:43;99312.63;;;7.45;91.78
51245;BME280;37840;47.562;18.738;2023-11-21T08:46:10;99320.78;;;7.42;91.85
51245;BME280;37840;47.562;18.738;2023-11-21T08:48:36;99311.78;;;7.44;91.81
51245;BME280;37840;47.562;18.738;2023-11-21T08:51:03;99309.66;;;7.49;91.65
51245;BME280;37840;47.562;18.738;2023-11-21T08:53:30;99316.56;;;7.52;91.49
51245;BME280;37840;47.562;18.738;2023-11-21T08:55:56;99319.62;;;7.59;91.31
51245;BME280;37840;47.562;18.738;2023-11-21T08:58:22;99321.13;;;7.63;91.17
51245;BME280;37840;47.562;18.738;2023-11-21T09:00:48;99315.22;;;7.59;91.44
51245;BME280;37840;47.562;18.738;2023-11-21T09:03:14;99317.22;;;7.55;91.71
51245;BME280;37840;47.562;18.738;2023-11-21T09:05:40;99319.53;;;7.60;91.54
51245;BME280;37840;47.562;18.738;2023-11-21T09:08:06;99322.53;;;7.68;90.46
51245;BME280;37840;47.562;18.738;2023-11-21T09:10:33;99321.03;;;7.64;90.65
51245;BME280;37840;47.562;18.738;2023-11-21T09:13:02;99315.56;;;7.67;90.62
51245;BME280;37840;47.562;18.738;2023-11-21T09:15:28;99312.72;;;7.70;90.51
51245;BME280;37840;47.562;18.738;2023-11-21T09:17:54;99312.09;;;7.80;90.56
51245;BME280;37840;47.562;18.738;2023-11-21T09:20:20;99312.44;;;7.88;89.74
51245;BME280;37840;47.562;18.738;2023-11-21T09:22:49;99309.13;;;7.71;90.84
51245;BME280;37840;47.562;18.738;2023-11-21T09:25:15;99308.91;;;7.74;90.69
51245;BME280;37840;47.562;18.738;2023-11-21T09:27:41;99310.47;;;7.64;90.73
51245;BME280;37840;47.562;18.738;2023-11-21T09:30:07;99304.06;;;7.54;91.01
51245;BME280;37840;47.562;18.738;2023-11-21T09:32:38;99297.97;;;7.66;90.84
51245;BME280;37840;47.562;18.738;2023-11-21T09:35:04;99293.13;;;7.73;90.68
51245;BME280;37840;47.562;18.738;2023-11-21T09:37:31;99288.41;;;7.91;90.18
51245;BME280;37840;47.562;18.738;2023-11-21T09:39:57;99300.94;;;8.02;89.15
51245;BME280;37840;47.562;18.738;2023-11-21T09:42:26;99298.28;;;8.02;88.65
51245;BME280;37840;47.562;18.738;2023-11-21T09:47:23;99285.75;;;7.91;89.54
51245;BME280;37840;47.562;18.738;2023-11-21T09:49:49;99283.56;;;7.97;89.06
51245;BME280;37840;47.562;18.738;2023-11-21T09:52:22;99284.59;;;7.95;89.30
51245;BME280;37840;47.562;18.738;2023-11-21T09:54:50;99283.13;;;8.04;88.44
51245;BME280;37840;47.562;18.738;2023-11-21T09:57:17;99267.75;;;7.96;88.71
51245;BME280;37840;47.562;18.738;2023-11-21T09:59:45;99276.03;;;8.04;89.42
51245;BME280;37840;47.562;18.738;2023-11-21T10:02:12;99270.00;;;8.02;89.80
51245;BME280;37840;47.562;18.738;2023-11-21T10:04:45;99275.38;;;8.01;90.18
51245;BME280;37840;47.562;18.738;2023-11-21T10:07:13;99268.00;;;8.06;90.71
51245;BME280;37840;47.562;18.738;2023-11-21T10:09:41;99263.13;;;8.12;90.56
51245;BME280;37840;47.562;18.738;2023-11-21T10:12:09;99253.16;;;8.16;90.33
51245;BME280;37840;47.562;18.738;2023-11-21T10:14:40;99260.06;;;8.19;90.17
51245;BME280;37840;47.562;18.738;2023-11-21T10:17:08;99261.63;;;8.21;90.21
51245;BME280;37840;47.562;18.738;2023-11-21T10:19:36;99262.06;;;8.28;89.75
51245;BME280;37840;47.562;18.738;2023-11-21T10:22:02;99253.78;;;8.32;89.27
51245;BME280;37840;47.562;18.738;2023-11-21T10:24:29;99248.38;;;8.34;88.78
51245;BME280;37840;47.562;18.738;2023-11-21T10:26:55;99259.91;;;8.33;88.74
51245;BME280;37840;47.562;18.738;2023-11-21T10:29:21;99249.13;;;8.36;88.88
51245;BME280;37840;47.562;18.738;2023-11-21T10:31:49;99254.78;;;8.44;89.09
51245;BME280;37840;47.562;18.738;2023-11-21T10:34:17;99249.34;;;8.46;89.46
51245;BME280;37840;47.562;18.738;2023-11-21T10:36:44;99248.91;;;8.52;89.71
51245;BME280;37840;47.562;18.738;2023-11-21T10:39:17;99253.59;;;8.61;87.84
51245;BME280;37840;47.562;18.738;2023-11-21T10:41:45;99258.75;;;8.63;88.42
51245;BME280;37840;47.562;18.738;2023-11-21T10:44:14;99254.44;;;8.62;89.25
51245;BME280;37840;47.562;18.738;2023-11-21T10:46:47;99253.19;;;8.42;90.31
51245;BME280;37840;47.562;18.738;2023-11-21T10:49:24;99253.37;;;8.51;90.37
51245;BME280;37840;47.562;18.738;2023-11-21T10:51:51;99252.97;;;8.45;90.07
51245;BME280;37840;47.562;18.738;2023-11-21T10:54:23;99256.56;;;8.56;89.59
51245;BME280;37840;47.562;18.738;2023-11-21T10:56:52;99250.19;;;8.59;89.83
51245;BME280;37840;47.562;18.738;2023-11-21T10:59:19;99245.41;;;8.64;90.18
51245;BME280;37840;47.562;18.738;2023-11-21T11:01:47;99243.91;;;8.73;90.68
51245;BME280;37840;47.562;18.738;2023-11-21T11:04:18;99233.84;;;8.78;92.16
51245;BME280;37840;47.562;18.738;2023-11-21T11:07:05;99238.97;;;8.92;92.94
51245;BME280;37840;47.562;18.738;2023-11-21T11:09:35;99236.03;;;8.84;92.89
51245;BME280;37840;47.562;18.738;2023-11-21T11:12:02;99230.59;;;8.86;92.93
51245;BME280;37840;47.562;18.738;2023-11-21T11:14:30;99227.22;;;8.84;92.69
51245;BME280;37840;47.562;18.738;2023-11-21T11:16:56;99232.81;;;8.92;92.74
51245;BME280;37840;47.562;18.738;2023-11-21T11:19:22;99236.50;;;9.02;90.67
51245;BME280;37840;47.562;18.738;2023-11-21T11:27:03;99235.97;;;9.10;87.25
51245;BME280;37840;47.562;18.738;2023-11-21T11:30:08;99236.91;;;9.09;86.79
51245;BME280;37840;47.562;18.738;2023-11-21T11:33:15;99230.13;;;9.05;87.73
51245;BME280;37840;47.562;18.738;2023-11-21T11:36:00;99220.34;;;9.05;88.10
51245;BME280;37840;47.562;18.738;2023-11-21T11:38:31;99219.75;;;9.02;88.62
51245;BME280;37840;47.562;18.738;2023-11-21T11:41:02;99220.50;;;9.04;89.59
51245;BME280;37840;47.562;18.738;2023-11-21T11:43:30;99222.91;;;9.07;90.61
51245;BME280;37840;47.562;18.738;2023-11-21T11:45:59;99218.34;;;9.09;91.13
51245;BME280;37840;47.562;18.738;2023-11-21T11:48:25;99216.50;;;9.09;91.40
51245;BME280;37840;47.562;18.738;2023-11-21T11:51:10;99216.41;;;9.11;91.74
51245;BME280;37840;47.562;18.738;2023-11-21T11:53:39;99215.13;;;9.16;92.18
51245;BME280;37840;47.562;18.738;2023-11-21T11:56:30;99218.50;;;9.18;92.26
51245;BME280;37840;47.562;18.738;2023-11-21T11:59:01;99216.47;;;9.22;92.14
51245;BME280;37840;47.562;18.738;2023-11-21T12:01:33;99210.88;;;9.38;89.99
51245;BME280;37840;47.562;18.738;2023-11-21T12:06:42;99210.38;;;9.33;90.02
51245;BME280;37840;47.562;18.738;2023-11-21T12:09:18;99205.91;;;9.33;89.74
51245;BME280;37840;47.562;18.738;2023-11-21T12:11:45;99202.28;;;9.34;88.75
51245;BME280;37840;47.562;18.738;2023-11-21T12:14:13;99212.38;;;9.53;85.51
51245;BME280;37840;47.562;18.738;2023-11-21T12:16:40;99206.78;;;9.45;86.08
51245;BME280;37840;47.562;18.738;2023-11-21T12:19:06;99208.78;;;9.54;85.05
51245;BME280;37840;47.562;18.738;2023-11-21T12:21:32;99202.72;;;9.52;84.57
51245;BME280;37840;47.562;18.738;2023-11-21T12:23:58;99202.28;;;9.58;85.05
51245;BME280;37840;47.562;18.738;2023-11-21T12:26:24;99199.47;;;9.60;86.03
51245;BME280;37840;47.562;18.738;2023-11-21T12:28:53;99204.12;;;9.69;86.43
51245;BME280;37840;47.562;18.738;2023-11-21T12:31:23;99203.38;;;9.67;87.60
51245;BME280;37840;47.562;18.738;2023-11-21T12:33:49;99198.03;;;9.56;87.73
51245;BME280;37840;47.562;18.738;2023-11-21T12:36:15;99202.75;;;9.64;88.01
51245;BME280;37840;47.562;18.738;2023-11-21T12:38:42;99198.91;;;9.68;88.38
51245;BME280;37840;47.562;18.738;2023-11-21T12:41:09;99197.09;;;9.68;87.60
51245;BME280;37840;47.562;18.738;2023-11-21T12:43:36;99189.50;;;9.75;86.42
51245;BME280;37840;47.562;18.738;2023-11-21T12:46:08;99191.50;;;9.49;88.71
51245;BME280;37840;47.562;18.738;2023-11-21T12:48:38;99197.22;;;9.31;90.46
51245;BME280;37840;47.562;18.738;2023-11-21T12:51:11;99197.34;;;9.30;90.78
51245;BME280;37840;47.562;18.738;2023-11-21T12:53:40;99198.69;;;9.35;90.92
51245;BME280;37840;47.562;18.738;2023-11-21T12:56:15;99191.94;;;9.43;91.05
51245;BME280;37840;47.562;18.738;2023-11-21T12:58:44;99202.22;;;9.47;91.14
51245;BME280;37840;47.562;18.738;2023-11-21T13:01:13;99195.81;;;9.50;91.16
51245;BME280;37840;47.562;18.738;2023-11-21T13:03:43;99199.09;;;9.53;91.10
51245;BME280;37840;47.562;18.738;2023-11-21T13:06:15;99199.84;;;9.55;90.95
51245;BME280;37840;47.562;18.738;2023-11-21T13:08:44;99193.97;;;9.63;90.81
51245;BME280;37840;47.562;18.738;2023-11-21T13:11:10;99189.47;;;9.64;90.78